Time;durP1;ratioP1;P1;durP2;ratioP2;P2;SDS_P1;SDS_P2;PMS_P1;PMS_P2;Temp;Humidity;BMP_temperature;BMP_pressure;BME280_temperature;BME280_humidity;BME280_pressure;Samples;Min_cycle;Max_cycle;Signal;HPM_P1;HPM_P2
2023/07/13 00:01:16;;;;;;;6.77;1.37;;;;;;;-145.18;100.00;46695.56;5095426;28;20383;-62
2023/07/13 00:03:42;;;;;;;7.77;1.50;;;;;;;-145.18;100.00;46693.59;5087025;28;20051;-62
2023/07/13 00:06:08;;;;;;;4.10;1.33;;;;;;;-145.18;100.00;46693.59;5095208;28;20471;-62
2023/07/13 00:08:34;;;;;;;7.60;1.30;;;;;;;-145.18;100.00;46699.47;5080230;28;20518;-62
2023/07/13 00:11:01;;;;;;;7.43;1.30;;;;;;;-145.18;100.00;46689.69;5081703;28;20104;-62
2023/07/13 00:13:28;;;;;;;3.93;1.10;;;;;;;-145.18;100.00;46693.59;5094311;28;20110;-62
2023/07/13 00:15:53;;;;;;;2.53;1.03;;;;;;;-145.18;100.00;46687.75;5077148;28;20032;-62
2023/07/13 00:18:20;;;;;;;5.47;1.47;;;;;;;-145.18;100.00;46693.59;5081123;28;20040;-62
2023/07/13 00:20:45;;;;;;;5.83;1.20;;;;;;;-145.18;100.00;46683.84;5094245;28;20044;-62
2023/07/13 00:23:11;;;;;;;4.17;1.30;;;;;;;-145.18;100.00;46689.69;5094004;28;20070;-62
2023/07/13 00:25:36;;;;;;;2.37;1.03;;;;;;;-145.18;100.00;46689.69;5092217;28;20092;-62
2023/07/13 00:28:02;;;;;;;6.70;1.50;;;;;;;-145.18;100.00;46677.97;5081074;28;20035;-62
2023/07/13 00:30:28;;;;;;;5.53;1.17;;;;;;;-145.18;100.00;46681.88;5094042;28;20012;-62
2023/07/13 00:32:53;;;;;;;6.57;1.67;;;;;;;-145.18;100.00;46679.94;5109037;28;20024;-62
2023/07/13 00:35:19;;;;;;;7.83;1.37;;;;;;;-145.18;100.00;46677.97;5076931;28;20032;-62
2023/07/13 00:37:45;;;;;;;5.93;1.67;;;;;;;-145.18;100.00;46674.06;5087514;28;20040;-62
2023/07/13 00:40:12;;;;;;;6.70;1.47;;;;;;;-145.18;100.00;46672.13;5091157;28;20042;-62
2023/07/13 00:42:38;;;;;;;6.80;1.30;;;;;;;-145.18;100.00;46676.03;5087672;28;20039;-62
2023/07/13 00:45:23;;;;;;;3.67;1.03;;;;;;;-145.18;100.00;46672.13;5090669;28;20041;-62
2023/07/13 00:47:49;;;;;;;4.70;1.52;;;;;;;-145.18;100.00;46668.22;5089720;28;20028;-62
2023/07/13 00:50:16;;;;;;;5.33;1.50;;;;;;;-145.18;100.00;46668.22;5094140;28;20028;-62
2023/07/13 00:52:47;;;;;;;3.63;1.10;;;;;;;-145.18;100.00;46664.31;5092664;28;20447;-62
2023/07/13 00:55:15;;;;;;;3.27;1.23;;;;;;;-145.18;100.00;46656.50;5074443;28;20074;-62
2023/07/13 00:57:41;;;;;;;4.97;1.60;;;;;;;-145.18;100.00;46662.34;5074013;28;20021;-62
2023/07/13 01:00:08;;;;;;;6.23;1.57;;;;;;;-145.18;100.00;46664.31;5084677;28;20032;-62
2023/07/13 01:02:36;;;;;;;5.83;1.30;;;;;;;-145.18;100.00;46662.34;5085211;28;20435;-62
2023/07/13 01:05:19;;;;;;;6.20;1.50;;;;;;;-145.18;100.00;46656.50;5077094;28;20732;-62
2023/07/13 01:07:45;;;;;;;6.63;1.40;;;;;;;-145.18;100.00;46660.41;5060688;28;20031;-62
2023/07/13 01:10:12;;;;;;;4.47;1.40;;;;;;;-145.18;100.00;46658.44;5074117;28;20032;-62
2023/07/13 01:12:38;;;;;;;4.93;1.40;;;;;;;-145.18;100.00;46658.44;5061096;28;20020;-62
2023/07/13 01:15:05;;;;;;;8.20;1.73;;;;;;;-145.18;100.00;46656.50;5086913;28;20111;-62
2023/07/13 01:17:32;;;;;;;10.10;2.03;;;;;;;-145.18;100.00;46654.53;5067893;28;20020;-62
2023/07/13 01:19:59;;;;;;;4.77;1.90;;;;;;;-145.18;100.00;46654.53;5092647;28;20051;-62
2023/07/13 01:22:26;;;;;;;3.70;1.40;;;;;;;-145.18;100.00;46654.53;5081124;28;20072;-62
2023/07/13 01:24:53;;;;;;;2.93;1.47;;;;;;;-145.18;100.00;46654.53;5070708;28;20512;-62
2023/07/13 01:27:24;;;;;;;9.33;2.03;;;;;;;-145.18;100.00;46648.69;5093355;28;20027;-62
2023/07/13 01:29:52;;;;;;;8.13;1.70;;;;;;;-145.18;100.00;46654.53;5092596;28;20016;-62
2023/07/13 01:32:23;;;;;;;6.70;1.73;;;;;;;-145.18;100.00;46648.69;5093239;28;20028;-62
2023/07/13 01:34:54;;;;;;;10.37;1.87;;;;;;;-145.18;100.00;46652.59;5092856;28;20372;-62
2023/07/13 01:37:20;;;;;;;6.73;1.83;;;;;;;-145.18;100.00;46648.69;5086117;28;20017;-62
2023/07/13 01:39:45;;;;;;;12.80;2.40;;;;;;;-145.18;100.00;46652.59;5104851;28;20028;-62
2023/07/13 01:42:10;;;;;;;10.30;2.03;;;;;;;-145.18;100.00;46648.69;5060857;28;20035;-62
2023/07/13 01:44:36;;;;;;;10.90;2.13;;;;;;;-145.18;100.00;46642.81;5090081;28;20031;-62
2023/07/13 01:47:02;;;;;;;6.57;1.93;;;;;;;-145.18;100.00;46644.78;5092915;28;20027;-62
2023/07/13 01:49:27;;;;;;;5.57;2.07;;;;;;;-145.18;100.00;46642.81;5092838;28;20077;-62
2023/07/13 01:51:52;;;;;;;6.10;1.80;;;;;;;-145.18;100.00;46648.69;5093037;28;20028;-62
2023/07/13 01:54:18;;;;;;;10.90;2.17;;;;;;;-145.18;100.00;46648.69;5075759;28;20082;-62
2023/07/13 01:56:43;;;;;;;6.60;1.80;;;;;;;-145.18;100.00;46648.69;5083463;28;20623;-62
2023/07/13 01:59:09;;;;;;;7.23;2.20;;;;;;;-145.18;100.00;46646.72;5077390;28;20044;-62
2023/07/13 02:01:35;;;;;;;12.23;2.37;;;;;;;-145.18;100.00;46640.88;5082307;28;20033;-62
2023/07/13 02:04:00;;;;;;;8.03;2.20;;;;;;;-145.18;100.00;46640.88;5076376;28;20023;-62
2023/07/13 02:06:26;;;;;;;7.83;2.03;;;;;;;-145.18;100.00;46644.78;5082495;28;20107;-62
2023/07/13 02:08:51;;;;;;;6.83;1.80;;;;;;;-145.18;100.00;46646.72;5086166;28;20017;-62
2023/07/13 02:11:17;;;;;;;11.13;2.57;;;;;;;-145.18;100.00;46642.81;5081900;28;20103;-62
2023/07/13 02:13:43;;;;;;;11.30;2.60;;;;;;;-145.18;100.00;46642.81;5083731;28;20063;-62
2023/07/13 02:16:08;;;;;;;14.83;2.87;;;;;;;-145.18;100.00;46644.78;5073037;28;20097;-62
2023/07/13 02:18:34;;;;;;;5.97;2.23;;;;;;;-145.18;100.00;46660.41;5072888;28;20480;-62
2023/07/13 02:20:59;;;;;;;9.20;2.23;;;;;;;-145.18;100.00;46642.81;5072270;28;20038;-62
2023/07/13 02:23:24;;;;;;;12.27;2.40;;;;;;;-145.18;100.00;46638.91;5075673;28;20031;-62
2023/07/13 02:25:55;;;;;;;8.23;2.23;;;;;;;-145.18;100.00;46646.72;5077950;28;20040;-62
2023/07/13 02:28:21;;;;;;;7.10;1.90;;;;;;;-145.18;100.00;46640.88;5073164;28;20035;-62
2023/07/13 02:30:46;;;;;;;9.57;2.40;;;;;;;-145.18;100.00;46640.88;5072579;28;20421;-62
2023/07/13 02:33:12;;;;;;;13.60;2.50;;;;;;;-145.18;100.00;46638.91;5072066;28;20035;-62
2023/07/13 02:35:37;;;;;;;7.57;2.03;;;;;;;-145.18;100.00;46638.91;5054532;28;20078;-62
2023/07/13 02:38:02;;;;;;;12.27;2.77;;;;;;;-145.18;100.00;46640.88;5090073;28;20117;-62
2023/07/13 02:40:28;;;;;;;12.20;2.47;;;;;;;-145.18;100.00;46644.78;5082838;28;20044;-62
2023/07/13 02:42:53;;;;;;;6.80;1.93;;;;;;;-145.18;100.00;46638.91;5074629;28;20132;-62
2023/07/13 02:45:18;;;;;;;8.17;2.43;;;;;;;-145.18;100.00;46638.91;5088237;28;20479;-62
2023/07/13 02:47:44;;;;;;;9.07;2.57;;;;;;;-145.18;100.00;46660.41;5084294;28;20032;-62
2023/07/13 02:50:09;;;;;;;8.50;2.40;;;;;;;-145.18;100.00;46660.41;5072580;28;20101;-62
2023/07/13 02:52:35;;;;;;;10.53;2.40;;;;;;;-145.18;100.00;46638.91;5072901;28;20536;-62
2023/07/13 02:55:00;;;;;;;11.07;2.83;;;;;;;-145.18;100.00;46677.97;5073321;28;20035;-62
2023/07/13 02:57:26;;;;;;;11.87;2.63;;;;;;;-145.18;100.00;46660.41;5076727;28;20045;-63
2023/07/13 02:59:52;;;;;;;14.20;2.87;;;;;;;-145.18;100.00;46660.41;5071933;28;20048;-62
2023/07/13 03:02:17;;;;;;;9.80;2.27;;;;;;;-145.18;100.00;46676.03;5072440;28;20381;-62
2023/07/13 03:04:43;;;;;;;9.63;2.60;;;;;;;-145.18;100.00;46660.41;5072235;28;20395;-63
2023/07/13 03:07:08;;;;;;;5.73;2.53;;;;;;;-145.18;100.00;46660.41;5053516;28;20123;-62
2023/07/13 03:09:35;;;;;;;7.53;2.50;;;;;;;-145.18;100.00;46636.94;5073081;28;20029;-62
2023/07/13 03:12:00;;;;;;;14.67;3.10;;;;;;;-145.18;100.00;46660.41;5071889;28;20042;-62
2023/07/13 03:14:26;;;;;;;10.37;2.80;;;;;;;-145.18;100.00;46660.41;5071742;28;20044;-63
2023/07/13 03:16:52;;;;;;;7.37;2.70;;;;;;;-145.18;100.00;46660.41;5072198;28;20028;-62
2023/07/13 03:19:18;;;;;;;10.63;2.67;;;;;;;-145.18;100.00;46660.41;5071988;28;20035;-62
2023/07/13 03:21:43;;;;;;;10.73;2.97;;;;;;;-145.18;100.00;46660.41;5071687;28;20032;-62
2023/07/13 03:24:09;;;;;;;14.00;2.73;;;;;;;-145.18;100.00;46660.41;5071888;28;20047;-63
2023/07/13 03:26:34;;;;;;;13.73;3.27;;;;;;;-145.18;100.00;46660.41;5073312;28;20038;-62
2023/07/13 03:29:00;;;;;;;7.90;2.83;;;;;;;-145.18;100.00;46660.41;5073761;28;20028;-62
2023/07/13 03:31:28;;;;;;;10.87;2.97;;;;;;;-145.18;100.00;46638.91;5093884;28;20032;-62
2023/07/13 03:33:54;;;;;;;13.50;3.40;;;;;;;-145.18;100.00;46660.41;5092888;28;20092;-62
2023/07/13 03:36:23;;;;;;;13.23;3.00;;;;;;;-145.18;100.00;46660.41;5095180;28;20036;-62
2023/07/13 03:38:51;;;;;;;12.27;3.43;;;;;;;-145.18;100.00;46635.00;5091949;28;20076;-63
2023/07/13 03:41:17;;;;;;;12.53;3.27;;;;;;;-145.18;100.00;46660.41;5080215;28;20380;-62
2023/07/13 03:43:42;;;;;;;7.40;3.13;;;;;;;-145.18;100.00;46660.41;5073443;28;20038;-63
2023/07/13 03:46:08;;;;;;;11.30;3.17;;;;;;;-145.18;100.00;46635.00;5095240;28;20102;-62
2023/07/13 03:48:33;;;;;;;9.93;3.20;;;;;;;-145.18;100.00;46660.41;5106774;28;20503;-62
2023/07/13 03:50:59;;;;;;;8.87;3.40;;;;;;;-145.18;100.00;46660.41;5100781;28;20028;-62
2023/07/13 03:53:24;;;;;;;10.40;3.47;;;;;;;-145.18;100.00;46660.41;5093252;28;20040;-63
2023/07/13 03:55:49;;;;;;;9.23;3.57;;;;;;;-145.18;100.00;46660.41;5084585;28;20047;-63
2023/07/13 03:58:31;;;;;;;13.53;3.83;;;;;;;-145.18;100.00;46660.41;5093021;28;20032;-62
2023/07/13 04:00:58;;;;;;;15.57;3.67;;;;;;;-145.18;100.00;46660.41;5083215;28;20051;-63
2023/07/13 04:03:24;;;;;;;18.40;3.73;;;;;;;-145.18;100.00;46660.41;5074760;28;20532;-63
2023/07/13 04:05:50;;;;;;;10.53;3.63;;;;;;;-145.18;100.00;46660.41;5075326;28;20119;-63
2023/07/13 04:08:15;;;;;;;16.17;4.77;;;;;;;-145.18;100.00;46660.41;5092966;28;20123;-63
2023/07/13 04:10:41;;;;;;;11.40;3.77;;;;;;;-145.18;100.00;46660.41;5094908;28;20027;-62
2023/07/13 04:13:06;;;;;;;12.17;3.77;;;;;;;-145.18;100.00;46660.41;5081955;28;20175;-63
2023/07/13 04:15:32;;;;;;;12.00;3.33;;;;;;;-145.18;100.00;46660.41;5065059;28;20029;-63
2023/07/13 04:17:58;;;;;;;21.07;4.90;;;;;;;-145.18;100.00;46638.91;5083283;28;20024;-63
2023/07/13 04:20:27;;;;;;;17.07;4.70;;;;;;;-145.18;100.00;46660.41;5066086;28;20029;-63
2023/07/13 04:22:55;;;;;;;17.90;5.40;;;;;;;-145.18;100.00;46633.06;5083800;28;20075;-63
2023/07/13 04:25:21;;;;;;;17.63;5.10;;;;;;;-145.18;100.00;46660.41;5072615;28;20039;-63
2023/07/13 04:27:47;;;;;;;10.97;4.50;;;;;;;-145.18;100.00;46660.41;5079701;28;20044;-62
2023/07/13 04:30:12;;;;;;;16.93;5.20;;;;;;;-145.18;100.00;46633.06;5082841;28;20024;-63
2023/07/13 04:32:38;;;;;;;16.70;5.10;;;;;;;-145.18;100.00;46660.41;5084209;28;20024;-62
2023/07/13 04:35:04;;;;;;;11.90;4.90;;;;;;;-145.18;100.00;46633.06;5105541;28;20158;-62
2023/07/13 04:37:29;;;;;;;18.93;5.27;;;;;;;-145.18;100.00;46633.06;5084853;28;20032;-63
2023/07/13 04:39:55;;;;;;;22.07;5.80;;;;;;;-145.18;100.00;46627.19;5089668;28;20066;-63
2023/07/13 04:42:20;;;;;;;19.27;4.87;;;;;;;-145.18;100.00;46631.09;5084689;28;20024;-62
2023/07/13 04:44:50;;;;;;;13.60;5.20;;;;;;;-145.18;100.00;46631.09;5082019;28;20508;-62
2023/07/13 04:47:16;;;;;;;18.57;5.40;;;;;;;-145.18;100.00;46629.13;5083944;28;20442;-62
2023/07/13 04:49:42;;;;;;;20.90;5.90;;;;;;;-145.18;100.00;46627.19;5081602;28;20158;-63
2023/07/13 04:52:07;;;;;;;22.37;5.30;;;;;;;-145.18;100.00;46631.09;5075980;28;20021;-63
2023/07/13 04:54:34;;;;;;;16.20;5.70;;;;;;;-145.18;100.00;46631.09;5076344;28;20077;-62
2023/07/13 04:57:00;;;;;;;15.43;5.87;;;;;;;-145.18;100.00;46631.09;5087661;28;20053;-62
2023/07/13 04:59:25;;;;;;;27.20;8.20;;;;;;;-145.18;100.00;46633.06;5075189;28;20053;-63
2023/07/13 05:01:51;;;;;;;20.90;6.70;;;;;;;-145.18;100.00;46629.13;5065782;28;20021;-63
2023/07/13 05:04:16;;;;;;;18.30;6.67;;;;;;;-145.18;100.00;46633.06;5092021;28;20035;-62
2023/07/13 05:06:42;;;;;;;15.90;6.40;;;;;;;-145.18;100.00;46631.09;5073851;28;20068;-63
2023/07/13 05:09:07;;;;;;;22.03;7.20;;;;;;;-145.18;100.00;46631.09;5079401;28;20027;-63
2023/07/13 05:11:33;;;;;;;28.73;6.60;;;;;;;-145.18;100.00;46629.13;5077462;28;20096;-63
2023/07/13 05:13:58;;;;;;;20.40;6.37;;;;;;;-145.18;100.00;46625.22;5077379;28;20388;-63
2023/07/13 05:16:24;;;;;;;21.47;6.93;;;;;;;-145.18;100.00;46629.13;5084007;28;20089;-63
2023/07/13 05:18:49;;;;;;;19.20;7.20;;;;;;;-145.18;100.00;46629.13;5083128;28;20067;-62
2023/07/13 05:21:15;;;;;;;22.57;7.43;;;;;;;-145.18;100.00;46625.22;5081023;28;20028;-63
2023/07/13 05:23:43;;;;;;;18.03;6.73;;;;;;;-145.18;100.00;46627.19;5089229;28;20110;-63
2023/07/13 05:26:10;;;;;;;22.03;6.33;;;;;;;-145.18;100.00;46629.13;5083651;28;20013;-63
2023/07/13 05:28:36;;;;;;;24.20;8.03;;;;;;;-145.18;100.00;46623.28;5077082;28;20552;-63
2023/07/13 05:31:01;;;;;;;20.70;6.33;;;;;;;-145.18;100.00;46623.28;5083172;28;20027;-62
2023/07/13 05:33:27;;;;;;;18.33;7.00;;;;;;;-145.18;100.00;46627.19;5088029;28;20020;-62
2023/07/13 05:35:53;;;;;;;25.20;7.63;;;;;;;-145.18;100.00;46629.13;5077145;28;20047;-62
2023/07/13 05:38:18;;;;;;;22.23;7.57;;;;;;;-145.18;100.00;46629.13;5087498;28;20484;-63
2023/07/13 05:40:44;;;;;;;18.43;6.13;;;;;;;-145.18;100.00;46629.13;5077863;28;20043;-63
2023/07/13 05:43:09;;;;;;;22.03;7.57;;;;;;;-145.18;100.00;46633.06;5065277;28;20032;-61
2023/07/13 05:45:35;;;;;;;23.07;7.50;;;;;;;-145.18;100.00;46627.19;5080493;28;20488;-62
2023/07/13 05:48:00;;;;;;;19.10;7.40;;;;;;;-145.18;100.00;46629.13;5079784;28;20034;-62
2023/07/13 05:50:26;;;;;;;21.97;8.13;;;;;;;-145.18;100.00;46629.13;5081021;28;20513;-63
2023/07/13 05:52:52;;;;;;;20.60;8.10;;;;;;;-145.18;100.00;46635.00;5079869;28;20028;-62
2023/07/13 05:55:17;;;;;;;25.10;8.77;;;;;;;-145.18;100.00;46636.94;5083652;28;20038;-63
2023/07/13 05:57:43;;;;;;;23.60;9.20;;;;;;;-145.18;100.00;46633.06;5079639;28;20081;-63
2023/07/13 06:00:09;;;;;;;25.87;9.37;;;;;;;-145.18;100.00;46635.00;5079251;28;20091;-62
2023/07/13 06:02:35;;;;;;;24.80;8.47;;;;;;;-145.18;100.00;46635.00;5072598;28;20025;-63
2023/07/13 06:05:00;;;;;;;34.30;9.77;;;;;;;-145.18;100.00;46629.13;5071856;28;20035;-63
2023/07/13 06:07:26;;;;;;;29.17;10.53;;;;;;;-145.18;100.00;46631.09;5092973;28;20032;-63
2023/07/13 06:09:51;;;;;;;23.63;10.50;;;;;;;-145.18;100.00;46625.22;5092455;28;20051;-62
2023/07/13 06:12:16;;;;;;;26.70;10.27;;;;;;;-145.18;100.00;46629.13;5074343;28;20055;-63
2023/07/13 06:14:42;;;;;;;21.33;9.67;;;;;;;-145.18;100.00;46623.28;5060932;28;20024;-63
2023/07/13 06:17:14;;;;;;;28.15;11.85;;;;;;;-145.18;100.00;46627.19;5092508;27;20383;-62
2023/07/13 06:19:39;;;;;;;26.00;11.47;;;;;;;-145.18;100.00;46627.19;5087991;28;20039;-62
2023/07/13 06:22:05;;;;;;;21.60;10.43;;;;;;;-145.18;100.00;46627.19;5086371;28;20048;-62
2023/07/13 06:24:30;;;;;;;23.23;10.80;;;;;;;-145.18;100.00;46625.22;5083150;28;20040;-62
2023/07/13 06:26:56;;;;;;;21.97;9.73;;;;;;;-145.18;100.00;46627.19;5087983;28;20024;-62
2023/07/13 06:29:21;;;;;;;20.50;11.17;;;;;;;-145.18;100.00;46631.09;5088593;28;20024;-62
2023/07/13 06:31:47;;;;;;;28.67;10.20;;;;;;;-145.18;100.00;46629.13;5087155;28;20020;-62
2023/07/13 06:34:12;;;;;;;34.57;12.20;;;;;;;-145.18;100.00;46627.19;5086726;28;20404;-62
2023/07/13 06:36:38;;;;;;;28.37;11.60;;;;;;;-145.18;100.00;46631.09;5088183;28;20034;-62
2023/07/13 06:39:04;;;;;;;20.20;10.23;;;;;;;-145.18;100.00;46631.09;5088256;28;20032;-62
2023/07/13 06:41:30;;;;;;;27.30;10.70;;;;;;;-145.18;100.00;46629.13;5088764;28;20506;-62
2023/07/13 06:43:56;;;;;;;27.37;10.87;;;;;;;-145.18;100.00;46636.94;5088313;28;20036;-62
2023/07/13 06:46:22;;;;;;;24.80;9.97;;;;;;;-145.18;100.00;46633.06;5088310;28;20028;-62
2023/07/13 06:48:48;;;;;;;25.37;11.33;;;;;;;-145.18;100.00;46631.09;5080447;28;20503;-63
2023/07/13 06:51:14;;;;;;;19.37;9.37;;;;;;;-145.18;100.00;46633.06;5093799;28;20033;-62
2023/07/13 06:53:39;;;;;;;21.00;9.67;;;;;;;-145.18;100.00;46636.94;5084590;28;20051;-62
2023/07/13 06:56:05;;;;;;;22.60;10.37;;;;;;;-145.18;100.00;46635.00;5088483;28;20113;-62
2023/07/13 06:58:31;;;;;;;25.13;9.17;;;;;;;-145.18;100.00;46635.00;5086659;28;20503;-62
2023/07/13 07:00:56;;;;;;;27.13;10.07;;;;;;;-145.18;100.00;46636.94;5087838;28;20051;-62
2023/07/13 07:03:21;;;;;;;18.70;9.63;;;;;;;-145.18;100.00;46638.91;5086383;28;20050;-62
2023/07/13 07:05:47;;;;;;;18.87;8.37;;;;;;;-145.18;100.00;46635.00;5085654;28;20126;-62
2023/07/13 07:08:12;;;;;;;21.67;8.80;;;;;;;-145.18;100.00;46644.78;5076468;28;20040;-62
2023/07/13 07:10:38;;;;;;;20.80;8.20;;;;;;;-145.18;100.00;46642.81;5088193;28;20085;-62
2023/07/13 07:13:03;;;;;;;19.03;7.77;;;;;;;-145.18;100.00;46640.88;5088019;28;20399;-62
2023/07/13 07:15:30;;;;;;;17.80;8.73;;;;;;;-145.18;100.00;46646.72;5087780;28;20040;-62
2023/07/13 07:17:55;;;;;;;16.53;7.37;;;;;;;-145.18;100.00;46642.81;5087519;28;20036;-62
2023/07/13 07:20:20;;;;;;;19.37;7.93;;;;;;;-145.18;100.00;46646.72;5086465;28;20043;-62
2023/07/13 07:22:46;;;;;;;18.20;7.20;;;;;;;-145.18;100.00;46654.53;5086155;28;20063;-62
2023/07/13 07:25:12;;;;;;;19.10;7.27;;;;;;;-145.18;100.00;46648.69;5087803;28;20017;-62
2023/07/13 07:27:38;;;;;;;14.77;6.33;;;;;;;-145.18;100.00;46650.63;5079551;28;20029;-65
2023/07/13 07:30:04;;;;;;;15.10;6.10;;;;;;;-145.18;100.00;46654.53;5074310;28;20036;-66
2023/07/13 07:32:30;;;;;;;11.93;5.70;;;;;;;-145.18;100.00;46660.41;5074021;28;20052;-66
2023/07/13 07:34:59;;;;;;;11.23;4.97;;;;;;;-145.18;100.00;46660.41;5073804;28;20730;-66
2023/07/13 07:37:24;;;;;;;25.43;6.43;;;;;;;-145.18;100.00;46664.31;5084928;28;20032;-65
2023/07/13 07:39:50;;;;;;;13.70;5.80;;;;;;;-145.18;100.00;46664.31;5072394;28;20066;-65
2023/07/13 07:42:15;;;;;;;15.03;5.27;;;;;;;-145.18;100.00;46668.22;5073973;28;20035;-66
2023/07/13 07:44:41;;;;;;;10.07;4.70;;;;;;;-145.18;100.00;46668.22;5072237;28;20059;-65
2023/07/13 07:47:07;;;;;;;16.40;5.20;;;;;;;-145.18;100.00;46668.22;5073966;28;20112;-66
2023/07/13 07:49:33;;;;;;;8.63;4.93;;;;;;;-145.18;100.00;46672.13;5073942;28;20040;-65
2023/07/13 07:51:58;;;;;;;9.60;4.53;;;;;;;-145.18;100.00;46674.06;5072352;28;20434;-65
2023/07/13 07:54:23;;;;;;;15.43;5.37;;;;;;;-145.18;100.00;46672.13;5072030;28;20489;-66
2023/07/13 07:56:49;;;;;;;18.63;4.70;;;;;;;-145.18;100.00;46668.22;5073344;28;20108;-66
2023/07/13 07:59:14;;;;;;;12.23;4.20;;;;;;;-145.18;100.00;46672.13;5073682;28;20039;-66
2023/07/13 08:01:40;;;;;;;10.67;3.50;;;;;;;-145.18;100.00;46644.78;5070911;28;20403;-65
2023/07/13 08:04:05;;;;;;;7.17;3.73;;;;;;;-145.18;100.00;46615.47;5073582;28;20041;-65
2023/07/13 08:06:34;;;;;;;9.50;3.67;;;;;;;-145.18;100.00;46603.75;5073486;28;20662;-65
2023/07/13 08:09:00;;;;;;;9.43;4.17;;;;;;;-145.18;100.00;46582.25;5082231;28;20120;-66
2023/07/13 08:11:25;;;;;;;10.47;4.30;;;;;;;-145.18;100.00;46593.97;5073582;28;20035;-67
2023/07/13 08:13:51;;;;;;;12.07;4.57;;;;;;;-145.18;100.00;46668.22;5073285;28;20033;-66
2023/07/13 08:16:16;;;;;;;12.60;4.17;;;;;;;-145.18;100.00;46676.03;5065344;28;20056;-65
2023/07/13 08:18:41;;;;;;;13.60;5.03;;;;;;;-145.18;100.00;46681.88;5072906;28;20063;-65
2023/07/13 08:21:08;;;;;;;12.43;5.00;;;;;;;-145.18;100.00;46674.06;5073064;28;20066;-66
2023/07/13 08:23:34;;;;;;;9.40;3.77;;;;;;;-145.18;100.00;46676.03;5073385;28;20111;-65
2023/07/13 08:26:01;;;;;;;9.30;3.70;;;;;;;-145.18;100.00;46674.06;5073012;28;20443;-65
2023/07/13 08:28:27;;;;;;;15.57;4.87;;;;;;;-145.18;100.00;46668.22;5073221;28;20036;-66
2023/07/13 08:30:53;;;;;;;11.37;4.40;;;;;;;-145.18;100.00;46668.22;5072616;28;20032;-65
2023/07/13 08:33:20;;;;;;;12.00;4.47;;;;;;;-145.18;100.00;46666.25;5072885;28;20036;-65
2023/07/13 08:35:47;;;;;;;15.33;4.63;;;;;;;-145.18;100.00;46666.25;5072774;28;20035;-66
2023/07/13 08:38:13;;;;;;;17.67;4.40;;;;;;;-145.18;100.00;46670.16;5072403;28;20471;-66
2023/07/13 08:40:39;;;;;;;9.77;3.80;;;;;;;-145.18;100.00;46666.25;5071981;28;20391;-65
2023/07/13 08:43:04;;;;;;;8.87;4.10;;;;;;;-145.18;100.00;46668.22;5063757;28;20472;-66
2023/07/13 08:45:40;;;;;;;8.13;3.93;;;;;;;-145.18;100.00;46666.25;5072721;28;20028;-65
2023/07/13 08:48:15;;;;;;;9.13;3.17;;;;;;;-145.18;100.00;46676.03;5072565;28;20044;-65
2023/07/13 08:51:00;;;;;;;8.33;3.33;;;;;;;-145.18;100.00;46672.13;5069863;28;20027;-66
2023/07/13 08:53:34;;;;;;;10.43;3.00;;;;;;;-145.18;100.00;46547.09;5070100;28;20035;-65
2023/07/13 08:56:00;;;;;;;9.83;3.50;;;;;;;-145.18;100.00;46541.25;5072112;28;20025;-66
2023/07/13 08:58:28;;;;;;;9.07;3.20;;;;;;;-145.18;100.00;46541.25;5072561;28;20025;-66
2023/07/13 09:01:14;;;;;;;7.00;2.73;;;;;;;-145.18;100.00;46543.19;5073337;28;20108;-66
2023/07/13 09:04:16;;;;;;;8.60;3.13;;;;;;;-145.18;100.00;46547.09;5062889;28;20035;-66
2023/07/13 09:06:59;;;;;;;12.43;3.73;;;;;;;-145.18;100.00;46549.06;5072020;28;20032;-66
2023/07/13 09:09:34;;;;;;;5.63;2.10;;;;;;;-145.18;100.00;46554.91;5072291;28;20036;-66
2023/07/13 09:12:07;;;;;;;11.57;2.80;;;;;;;-145.18;100.00;46554.91;5072247;28;20480;-66
2023/07/13 09:14:44;;;;;;;7.47;3.13;;;;;;;-145.18;100.00;46556.88;5085028;28;20020;-66
2023/07/13 09:17:24;;;;;;;7.97;3.30;;;;;;;-145.18;100.00;46580.31;5063102;28;20117;-67
2023/07/13 09:20:03;;;;;;;12.47;3.60;;;;;;;-145.18;100.00;46677.97;5071639;28;20817;-68
2023/07/13 09:22:33;;;;;;;11.80;3.70;;;;;;;-145.18;100.00;46670.16;5072309;28;20024;-68
2023/07/13 09:25:13;;;;;;;6.83;3.40;;;;;;;-145.18;100.00;46664.31;5061411;28;20472;-67
2023/07/13 09:27:42;;;;;;;11.17;4.30;;;;;;;-145.18;100.00;46658.44;5071926;28;20031;-69
2023/07/13 09:30:38;;;;;;;8.87;3.73;;;;;;;-145.18;100.00;46642.81;5071926;28;20441;-68
2023/07/13 09:33:04;;;;;;;11.23;4.03;;;;;;;-145.18;100.00;46635.00;5061861;28;20036;-67
2023/07/13 09:35:30;;;;;;;10.70;3.90;;;;;;;-145.18;100.00;46636.94;5071520;28;20036;-67
2023/07/13 09:38:04;;;;;;;10.93;4.60;;;;;;;-145.18;100.00;46635.00;5070458;28;20048;-66
2023/07/13 09:41:03;;;;;;;8.37;3.40;;;;;;;-145.18;100.00;46640.88;5067296;28;20422;-66
2023/07/13 09:43:28;;;;;;;7.63;3.40;;;;;;;-145.18;100.00;46640.88;5069089;28;20119;-66
2023/07/13 09:45:55;;;;;;;8.13;2.80;;;;;;;-145.18;100.00;46644.78;5071377;28;20020;-68
2023/07/13 09:48:20;;;;;;;9.23;3.13;;;;;;;-145.18;100.00;46650.63;5072318;28;20399;-63
2023/07/13 09:50:46;;;;;;;6.00;2.60;;;;;;;-145.18;100.00;46642.81;5064318;28;20032;-63
2023/07/13 09:53:16;;;;;;;9.53;2.40;;;;;;;-145.18;100.00;46644.78;5071600;28;20036;-63
2023/07/13 09:55:44;;;;;;;5.83;2.67;;;;;;;-145.18;100.00;46644.78;5070428;28;20024;-63
2023/07/13 09:58:17;;;;;;;5.10;2.43;;;;;;;-145.18;100.00;46640.88;5071036;28;20078;-63
2023/07/13 10:00:56;;;;;;;6.73;2.57;;;;;;;-145.18;100.00;46638.91;5071611;28;20048;-64
2023/07/13 10:03:37;;;;;;;7.73;2.63;;;;;;;-145.18;100.00;46636.94;5071331;28;20036;-65
2023/07/13 10:06:17;;;;;;;8.70;2.93;;;;;;;-145.18;100.00;46642.81;5071450;28;20016;-64
2023/07/13 10:08:46;;;;;;;7.17;3.10;;;;;;;-145.18;100.00;46638.91;5071783;28;20024;-65
2023/07/13 10:11:22;;;;;;;7.20;3.10;;;;;;;-145.18;100.00;46644.78;5070928;28;20025;-65
2023/07/13 10:13:48;;;;;;;;;;;;;;;-145.18;100.00;46642.81;5071655;28;20062;-65
2023/07/13 10:16:15;;;;;;;5.77;3.23;;;;;;;-145.18;100.00;46660.41;5070992;28;19966;-65
2023/07/13 10:18:48;;;;;;;5.63;2.23;;;;;;;-145.18;100.00;46660.41;5073758;28;20051;-65
2023/07/13 10:21:22;;;;;;;5.47;2.63;;;;;;;-145.18;100.00;46664.31;5071236;28;20120;-65
2023/07/13 10:23:53;;;;;;;6.63;2.60;;;;;;;-145.18;100.00;46664.31;5071180;28;20036;-64
2023/07/13 10:26:26;;;;;;;5.50;2.10;;;;;;;-145.18;100.00;46672.13;5071425;28;20024;-64
2023/07/13 10:28:56;;;;;;;6.90;2.17;;;;;;;-145.18;100.00;46668.22;5069810;28;20111;-63
2023/07/13 10:31:23;;;;;;;8.67;2.23;;;;;;;-145.18;100.00;46668.22;5071420;28;20036;-64
2023/07/13 10:33:49;;;;;;;4.97;1.93;;;;;;;-145.18;100.00;46674.06;5066425;28;20170;-63
2023/07/13 10:36:32;;;;;;;7.47;2.87;;;;;;;-145.18;100.00;46676.03;5070157;28;20445;-63
2023/07/13 10:39:01;;;;;;;4.47;2.60;;;;;;;-145.18;100.00;46676.03;5067351;28;20029;-63
2023/07/13 10:41:29;;;;;;;5.80;2.57;;;;;;;-145.18;100.00;46677.97;5062878;28;20035;-63
2023/07/13 10:43:57;;;;;;;5.33;2.30;;;;;;;-145.18;100.00;46677.97;5075514;28;20017;-63
2023/07/13 10:46:29;;;;;;;8.07;2.40;;;;;;;-145.18;100.00;46676.03;5070992;28;20050;-63
2023/07/13 10:48:58;;;;;;;5.40;2.37;;;;;;;-145.18;100.00;46676.03;5073711;28;20028;-63
2023/07/13 10:51:25;;;;;;;5.00;2.50;;;;;;;-145.18;100.00;46676.03;5076907;28;20039;-63
2023/07/13 10:54:16;;;;;;;6.43;2.43;;;;;;;-145.18;100.00;46666.25;5073979;28;20040;-64
2023/07/13 10:56:43;;;;;;;9.33;3.13;;;;;;;-145.18;100.00;46631.09;5070746;28;20134;-64
2023/07/13 10:59:08;;;;;;;5.43;2.37;;;;;;;-145.18;100.00;46578.34;5066003;28;20044;-66
2023/07/13 11:01:50;;;;;;;5.23;1.97;;;;;;;-145.18;100.00;46539.28;5068549;28;20025;-66
2023/07/13 11:04:16;;;;;;;6.90;2.30;;;;;;;-145.18;100.00;46539.28;5074699;28;20110;-66
2023/07/13 11:06:46;;;;;;;3.83;1.97;;;;;;;-145.18;100.00;46539.28;5074532;28;20484;-66